首页
METAR-TAF:

METAR-TAF

机场 :

克羅托內, 意大利

纬度: 39-00N, 经度: 017-04E, 海拔: 155米

当前天气观测

该预报发布于57分钟前的15:50 UTC
风速14节,风向南转西南
温度 26°C
湿度 84%
气压 1011 hPa
能见度10公里或以上
少量云层高于2500英尺

METAR: LIBC 231550Z 20014KT 9999 FEW025 26/23 Q1011

时间: 18:47 (16:47 UTC)

预报

该预报发布于5小时和47分钟前的11:00 UTC
预报有效从23日的 12点(UTC)到 24日的 12点(UTC)
风速16节,风向西南
能见度10公里或以上
散云层高于3000英尺

TAF: LIBC 231100Z 2312/2412 22016KT 9999 SCT030

超过4000个机场的气象观测和天气预报(METAR&TAF报告)。

可查询的气象台以黄色和红色小点在地图上表示。

将鼠标移到小点上方,可查看气象台名称。

然后点击查看天气观测和预报。

如需切换地图:点击带黑十字的绿色按钮放大地图;点击带横线的绿色按钮缩小地图;或者点击绿色箭头查看邻近地区的地图。


METAR-TAF: